sensor_id;sensor_type;location;lat;lon;timestamp;temperature;humidity
2300;DHT22;1158;48.750;9.078;2023-10-31T08:57:31;12.80;99.90
2300;DHT22;1158;48.750;9.078;2023-10-31T08:59:59;13.10;99.90
2300;DHT22;1158;48.750;9.078;2023-10-31T09:02:25;13.30;99.90
2300;DHT22;1158;48.750;9.078;2023-10-31T09:04:52;13.30;99.90
2300;DHT22;1158;48.750;9.078;2023-10-31T09:07:19;13.00;99.90
2300;DHT22;1158;48.750;9.078;2023-10-31T09:09:46;12.50;99.90
2300;DHT22;1158;48.750;9.078;2023-10-31T09:12:13;12.40;99.90
2300;DHT22;1158;48.750;9.078;2023-10-31T09:19:35;12.50;99.90
2300;DHT22;1158;48.750;9.078;2023-10-31T09:22:02;13.40;99.90
2300;DHT22;1158;48.750;9.078;2023-10-31T09:24:29;13.70;99.90
2300;DHT22;1158;48.750;9.078;2023-10-31T09:26:55;13.20;99.90
2300;DHT22;1158;48.750;9.078;2023-10-31T09:29:22;12.80;99.90
2300;DHT22;1158;48.750;9.078;2023-10-31T09:31:50;12.50;99.90
2300;DHT22;1158;48.750;9.078;2023-10-31T09:34:17;12.50;99.90
2300;DHT22;1158;48.750;9.078;2023-10-31T09:36:44;12.80;99.90
2300;DHT22;1158;48.750;9.078;2023-10-31T09:39:11;13.00;99.90
2300;DHT22;1158;48.750;9.078;2023-10-31T09:41:38;13.10;99.90
2300;DHT22;1158;48.750;9.078;2023-10-31T09:44:05;13.40;99.90
2300;DHT22;1158;48.750;9.078;2023-10-31T09:46:32;13.70;99.90
2300;DHT22;1158;48.750;9.078;2023-10-31T09:49:01;13.50;99.90
2300;DHT22;1158;48.750;9.078;2023-10-31T09:51:28;13.30;99.90
2300;DHT22;1158;48.750;9.078;2023-10-31T09:53:57;13.10;99.90
2300;DHT22;1158;48.750;9.078;2023-10-31T09:56:26;12.90;99.90
2300;DHT22;1158;48.750;9.078;2023-10-31T09:58:59;12.50;99.90
2300;DHT22;1158;48.750;9.078;2023-10-31T10:01:26;12.30;99.90
2300;DHT22;1158;48.750;9.078;2023-10-31T10:03:54;12.20;99.90
2300;DHT22;1158;48.750;9.078;2023-10-31T10:06:22;12.10;99.90
2300;DHT22;1158;48.750;9.078;2023-10-31T10:08:49;11.90;99.90
2300;DHT22;1158;48.750;9.078;2023-10-31T10:11:16;11.60;99.90
2300;DHT22;1158;48.750;9.078;2023-10-31T10:13:43;11.50;99.90
2300;DHT22;1158;48.750;9.078;2023-10-31T10:16:10;11.40;99.90
2300;DHT22;1158;48.750;9.078;2023-10-31T10:18:37;11.40;99.90
2300;DHT22;1158;48.750;9.078;2023-10-31T10:21:06;11.60;99.90
2300;DHT22;1158;48.750;9.078;2023-10-31T10:23:34;12.00;99.90
2300;DHT22;1158;48.750;9.078;2023-10-31T10:26:02;12.30;99.90
2300;DHT22;1158;48.750;9.078;2023-10-31T10:28:29;12.30;99.90
2300;DHT22;1158;48.750;9.078;2023-10-31T10:30:55;12.30;99.90
2300;DHT22;1158;48.750;9.078;2023-10-31T10:33:22;12.30;99.90
2300;DHT22;1158;48.750;9.078;2023-10-31T10:35:49;12.30;99.90
2300;DHT22;1158;48.750;9.078;2023-10-31T10:38:17;12.20;99.90
2300;DHT22;1158;48.750;9.078;2023-10-31T10:40:47;12.10;99.90
2300;DHT22;1158;48.750;9.078;2023-10-31T10:43:20;12.00;99.90
2300;DHT22;1158;48.750;9.078;2023-10-31T10:45:50;11.90;99.90
2300;DHT22;1158;48.750;9.078;2023-10-31T10:48:20;11.60;99.90
2300;DHT22;1158;48.750;9.078;2023-10-31T10:50:51;11.40;99.90
2300;DHT22;1158;48.750;9.078;2023-10-31T10:53:23;11.50;99.90
2300;DHT22;1158;48.750;9.078;2023-10-31T10:55:57;11.40;99.90
2300;DHT22;1158;48.750;9.078;2023-10-31T10:58:32;11.50;99.90
2300;DHT22;1158;48.750;9.078;2023-10-31T11:01:00;11.40;99.90
2300;DHT22;1158;48.750;9.078;2023-10-31T11:03:29;11.50;99.90
2300;DHT22;1158;48.750;9.078;2023-10-31T11:05:56;11.70;99.90
2300;DHT22;1158;48.750;9.078;2023-10-31T11:08:23;12.00;99.90
2300;DHT22;1158;48.750;9.078;2023-10-31T11:10:54;12.10;99.90
2300;DHT22;1158;48.750;9.078;2023-10-31T11:13:22;12.10;99.90
2300;DHT22;1158;48.750;9.078;2023-10-31T11:15:52;12.00;99.90
2300;DHT22;1158;48.750;9.078;2023-10-31T11:18:20;12.20;99.90
2300;DHT22;1158;48.750;9.078;2023-10-31T11:20:48;12.40;99.90
2300;DHT22;1158;48.750;9.078;2023-10-31T11:23:15;12.50;99.90
2300;DHT22;1158;48.750;9.078;2023-10-31T11:25:43;12.50;99.90
2300;DHT22;1158;48.750;9.078;2023-10-31T11:28:16;12.50;99.90
2300;DHT22;1158;48.750;9.078;2023-10-31T11:30:43;12.80;99.90
2300;DHT22;1158;48.750;9.078;2023-10-31T11:33:12;13.20;99.90
2300;DHT22;1158;48.750;9.078;2023-10-31T11:35:40;13.30;99.90
2300;DHT22;1158;48.750;9.078;2023-10-31T11:38:09;13.40;99.90
2300;DHT22;1158;48.750;9.078;2023-10-31T11:40:37;13.30;99.90
2300;DHT22;1158;48.750;9.078;2023-10-31T11:43:14;13.40;99.90
2300;DHT22;1158;48.750;9.078;2023-10-31T11:45:42;13.60;99.90
2300;DHT22;1158;48.750;9.078;2023-10-31T11:48:10;13.50;99.90
2300;DHT22;1158;48.750;9.078;2023-10-31T11:50:38;13.40;99.90
2300;DHT22;1158;48.750;9.078;2023-10-31T11:53:06;13.20;99.90
2300;DHT22;1158;48.750;9.078;2023-10-31T12:08:24;12.20;99.90
2300;DHT22;1158;48.750;9.078;2023-10-31T12:10:51;12.10;99.90
2300;DHT22;1158;48.750;9.078;2023-10-31T12:13:19;12.10;99.90
2300;DHT22;1158;48.750;9.078;2023-10-31T12:15:52;12.10;99.90
2300;DHT22;1158;48.750;9.078;2023-10-31T12:18:19;12.00;99.90
2300;DHT22;1158;48.750;9.078;2023-10-31T12:20:50;12.00;99.90
2300;DHT22;1158;48.750;9.078;2023-10-31T12:23:18;11.90;99.90
2300;DHT22;1158;48.750;9.078;2023-10-31T12:25:48;12.20;99.90
2300;DHT22;1158;48.750;9.078;2023-10-31T15:58:10;10.40;99.90
2300;DHT22;1158;48.750;9.078;2023-10-31T16:07:58;10.30;99.90
2300;DHT22;1158;48.750;9.078;2023-10-31T16:10:27;10.20;99.90
2300;DHT22;1158;48.750;9.078;2023-10-31T16:12:53;10.20;99.90
2300;DHT22;1158;48.750;9.078;2023-10-31T16:15:20;10.20;99.90
2300;DHT22;1158;48.750;9.078;2023-10-31T16:17:47;10.10;99.90
2300;DHT22;1158;48.750;9.078;2023-10-31T16:20:15;10.10;99.90
2300;DHT22;1158;48.750;9.078;2023-10-31T16:25:09;10.00;99.90
2300;DHT22;1158;48.750;9.078;2023-10-31T16:27:37;10.00;99.90
2300;DHT22;1158;48.750;9.078;2023-10-31T16:30:04;10.00;99.90
2300;DHT22;1158;48.750;9.078;2023-10-31T16:32:33;9.90;99.90
2300;DHT22;1158;48.750;9.078;2023-10-31T16:35:00;9.80;99.90
2300;DHT22;1158;48.750;9.078;2023-10-31T16:37:26;9.80;99.90
2300;DHT22;1158;48.750;9.078;2023-10-31T16:39:53;9.80;99.90
2300;DHT22;1158;48.750;9.078;2023-10-31T16:42:20;9.70;99.90
2300;DHT22;1158;48.750;9.078;2023-10-31T16:44:48;9.60;99.90
